Time;durP1;ratioP1;P1;durP2;ratioP2;P2;SDS_P1;SDS_P2;PMS_P1;PMS_P2;Temp;Humidity;BMP_temperature;BMP_pressure;BME280_temperature;BME280_humidity;BME280_pressure;Samples;Min_cycle;Max_cycle;Signal;HPM_P1;HPM_P2
2023/03/13 00:02:20;;;;;;;4.78;1.50;;;;;;;;;;5060698;28;20518;-61
2023/03/13 00:04:54;;;;;;;4.35;1.35;;;;;;;;;;5061002;28;20068;-61
2023/03/13 00:07:21;;;;;;;6.00;1.67;;;;;;;;;;5060516;28;20079;-61
2023/03/13 00:09:49;;;;;;;5.65;1.30;;;;;;;;;;5063485;28;20087;-62
2023/03/13 00:12:23;;;;;;;3.80;1.10;;;;;;;;;;5061988;28;20068;-61
2023/03/13 00:14:50;;;;;;;1.45;1.05;;;;;;;;;;5061385;28;21026;-61
2023/03/13 00:17:24;;;;;;;2.08;1.13;;;;;;;;;;5063270;28;20139;-58
2023/03/13 00:19:51;;;;;;;4.65;1.50;;;;;;;;;;5061580;28;20048;-59
2023/03/13 00:22:25;;;;;;;3.08;1.10;;;;;;;;;;5059745;28;20131;-59
2023/03/13 00:24:52;;;;;;;2.47;1.02;;;;;;;;;;5066181;28;20140;-58
2023/03/13 00:27:19;;;;;;;8.30;1.30;;;;;;;;;;5058548;28;20044;-52
2023/03/13 00:29:56;;;;;;;3.55;1.40;;;;;;;;;;5061152;28;20052;-58
2023/03/13 00:32:23;;;;;;;4.85;1.35;;;;;;;;;;5060398;28;20045;-48
2023/03/13 00:35:04;;;;;;;2.30;1.40;;;;;;;;;;5062644;28;20474;-52
2023/03/13 00:37:37;;;;;;;6.57;1.70;;;;;;;;;;5059047;28;20063;-53
2023/03/13 00:40:11;;;;;;;5.05;1.90;;;;;;;;;;5064826;28;20492;-49
2023/03/13 00:42:45;;;;;;;2.70;1.17;;;;;;;;;;5061677;28;20129;-51
2023/03/13 00:45:19;;;;;;;3.22;1.40;;;;;;;;;;5061931;28;20131;-48
2023/03/13 00:47:48;;;;;;;2.33;1.05;;;;;;;;;;5059692;28;20573;-49
2023/03/13 00:50:22;;;;;;;3.78;1.50;;;;;;;;;;5059028;28;20933;-47
2023/03/13 00:52:49;;;;;;;5.75;1.35;;;;;;;;;;5060701;28;20124;-48
2023/03/13 00:55:16;;;;;;;4.05;1.27;;;;;;;;;;5064252;28;20083;-63
2023/03/13 00:57:50;;;;;;;3.95;1.42;;;;;;;;;;5060495;28;20163;-55
2023/03/13 01:00:17;;;;;;;6.40;2.38;;;;;;;;;;5061901;28;20451;-60
2023/03/13 01:02:51;;;;;;;4.55;1.55;;;;;;;;;;5060197;28;20489;-59
2023/03/13 01:05:18;;;;;;;2.75;1.85;;;;;;;;;;5062364;28;20140;-59
2023/03/13 01:07:46;;;;;;;5.18;1.17;;;;;;;;;;5059996;28;20908;-60
2023/03/13 01:10:19;;;;;;;1.23;1.02;;;;;;;;;;5063376;28;20052;-59
2023/03/13 01:12:46;;;;;;;4.35;1.42;;;;;;;;;;5057800;28;20059;-60
2023/03/13 01:15:20;;;;;;;5.07;1.60;;;;;;;;;;5062699;28;20062;-62
2023/03/13 01:17:47;;;;;;;1.25;1.05;;;;;;;;;;5058965;28;20037;-61
2023/03/13 01:20:14;;;;;;;1.25;1.08;;;;;;;;;;5060494;28;20892;-61
2023/03/13 01:22:48;;;;;;;1.25;1.13;;;;;;;;;;5059580;28;20045;-61
2023/03/13 01:25:16;;;;;;;6.20;1.88;;;;;;;;;;5045428;28;20139;-61
2023/03/13 01:27:43;;;;;;;1.70;1.20;;;;;;;;;;5054932;28;20131;-58
2023/03/13 01:30:17;;;;;;;3.85;1.23;;;;;;;;;;5061000;28;20444;-53
2023/03/13 01:32:44;;;;;;;4.15;1.50;;;;;;;;;;5060750;28;20055;-57
2023/03/13 01:35:25;;;;;;;3.55;1.52;;;;;;;;;;5063122;28;20139;-55
2023/03/13 01:37:52;;;;;;;1.38;1.25;;;;;;;;;;5056999;28;20476;-55
2023/03/13 01:40:26;;;;;;;2.90;1.42;;;;;;;;;;5064346;28;20044;-55
2023/03/13 01:42:55;;;;;;;3.90;1.58;;;;;;;;;;5060803;28;20056;-56
2023/03/13 01:45:41;;;;;;;1.48;1.15;;;;;;;;;;5062720;28;20136;-56
2023/03/13 01:48:15;;;;;;;2.63;1.70;;;;;;;;;;5056279;28;20051;-57
2023/03/13 01:50:42;;;;;;;4.13;1.63;;;;;;;;;;5061659;28;20044;-50
2023/03/13 01:53:16;;;;;;;3.13;1.60;;;;;;;;;;5058288;28;20040;-54
2023/03/13 01:55:43;;;;;;;2.75;1.52;;;;;;;;;;5061627;28;20484;-53
2023/03/13 01:58:17;;;;;;;1.98;1.38;;;;;;;;;;5058412;28;20048;-51
2023/03/13 02:00:45;;;;;;;3.33;1.63;;;;;;;;;;5058809;28;20083;-49
2023/03/13 02:03:20;;;;;;;1.95;1.20;;;;;;;;;;5060463;28;20422;-50
2023/03/13 02:05:48;;;;;;;4.40;1.48;;;;;;;;;;5061447;28;20060;-55
2023/03/13 02:08:31;;;;;;;2.35;1.73;;;;;;;;;;5058874;28;20119;-50
2023/03/13 02:11:12;;;;;;;2.00;1.25;;;;;;;;;;5063494;28;20127;-53
2023/03/13 02:13:47;;;;;;;2.00;1.45;;;;;;;;;;5057530;28;20056;-55
2023/03/13 02:16:14;;;;;;;5.68;1.55;;;;;;;;;;5061333;28;20041;-51
2023/03/13 02:18:42;;;;;;;2.47;1.08;;;;;;;;;;5059702;28;20052;-52
2023/03/13 02:21:24;;;;;;;0.98;0.93;;;;;;;;;;5061184;28;20041;-61
2023/03/13 02:24:09;;;;;;;1.40;0.90;;;;;;;;;;5060074;28;20044;-55
2023/03/13 02:26:43;;;;;;;1.42;1.33;;;;;;;;;;5056102;28;20048;-54
2023/03/13 02:29:17;;;;;;;2.47;1.60;;;;;;;;;;5061783;28;20626;-52
2023/03/13 02:31:51;;;;;;;1.55;0.93;;;;;;;;;;5063670;28;20431;-53
2023/03/13 02:34:33;;;;;;;3.72;1.70;;;;;;;;;;5065604;28;20055;-54
2023/03/13 02:37:01;;;;;;;4.15;1.38;;;;;;;;;;5062782;28;20123;-51
2023/03/13 02:39:35;;;;;;;2.13;1.50;;;;;;;;;;5066040;28;20171;-62
2023/03/13 02:42:03;;;;;;;2.33;1.42;;;;;;;;;;5062539;28;20075;-62
2023/03/13 02:44:45;;;;;;;2.53;1.35;;;;;;;;;;5062526;28;20080;-62
2023/03/13 02:47:24;;;;;;;3.28;1.58;;;;;;;;;;5063381;28;20049;-62
2023/03/13 02:49:58;;;;;;;3.03;1.58;;;;;;;;;;5062735;28;20044;-62
2023/03/13 02:52:36;;;;;;;3.05;1.05;;;;;;;;;;5064193;28;20136;-56
2023/03/13 02:55:21;;;;;;;4.40;1.17;;;;;;;;;;5064019;28;20080;-56
2023/03/13 02:57:55;;;;;;;1.55;1.17;;;;;;;;;;5061127;28;20511;-55
2023/03/13 03:00:25;;;;;;;1.08;0.98;;;;;;;;;;5064651;28;20554;-55
2023/03/13 03:02:59;;;;;;;1.17;1.08;;;;;;;;;;5062659;28;20041;-54
2023/03/13 03:05:26;;;;;;;1.10;0.95;;;;;;;;;;5061692;28;20053;-54
2023/03/13 03:07:53;;;;;;;1.02;0.90;;;;;;;;;;5061106;28;20135;-52
2023/03/13 03:10:27;;;;;;;0.70;0.68;;;;;;;;;;5064323;28;20053;-53
2023/03/13 03:12:54;;;;;;;2.05;1.10;;;;;;;;;;5060730;28;20624;-50
2023/03/13 03:15:28;;;;;;;1.92;1.30;;;;;;;;;;5060541;28;20052;-56
2023/03/13 03:17:55;;;;;;;1.20;1.10;;;;;;;;;;5065272;28;20044;-59
2023/03/13 03:20:22;;;;;;;1.40;1.08;;;;;;;;;;5065008;28;20500;-50
2023/03/13 03:22:56;;;;;;;2.35;1.00;;;;;;;;;;5063426;28;20074;-62
2023/03/13 03:25:23;;;;;;;0.50;0.50;;;;;;;;;;5067079;28;20492;-62
2023/03/13 03:27:57;;;;;;;1.08;0.90;;;;;;;;;;5063722;28;20517;-62
2023/03/13 03:30:24;;;;;;;1.48;1.25;;;;;;;;;;5064714;28;20044;-62
2023/03/13 03:32:51;;;;;;;0.70;0.70;;;;;;;;;;5058614;28;20138;-62
2023/03/13 03:35:39;;;;;;;2.30;0.82;;;;;;;;;;5053179;28;20045;-62
2023/03/13 03:38:13;;;;;;;2.60;1.00;;;;;;;;;;5041800;28;20103;-52
2023/03/13 03:40:47;;;;;;;1.80;1.10;;;;;;;;;;5042756;28;20126;-62
2023/03/13 03:43:14;;;;;;;1.17;0.95;;;;;;;;;;5040786;28;20045;-63
2023/03/13 03:45:41;;;;;;;1.00;0.90;;;;;;;;;;5042324;28;20044;-62
2023/03/13 03:48:15;;;;;;;0.90;0.90;;;;;;;;;;5042584;28;20049;-61
2023/03/13 03:50:43;;;;;;;1.33;0.70;;;;;;;;;;5041719;28;20197;-62
2023/03/13 03:53:10;;;;;;;1.88;1.42;;;;;;;;;;5042576;28;20497;-62
2023/03/13 03:55:44;;;;;;;0.80;0.80;;;;;;;;;;5041839;28;20045;-62
2023/03/13 03:58:11;;;;;;;0.85;0.85;;;;;;;;;;5040330;28;20043;-62
2023/03/13 04:00:38;;;;;;;1.08;0.90;;;;;;;;;;5038909;28;20044;-62
2023/03/13 04:03:12;;;;;;;0.80;0.68;;;;;;;;;;5043591;28;20055;-62
2023/03/13 04:05:40;;;;;;;1.00;0.88;;;;;;;;;;5043056;28;21184;-62
2023/03/13 04:08:07;;;;;;;1.35;1.08;;;;;;;;;;5040069;28;20136;-56
2023/03/13 04:10:41;;;;;;;1.17;0.90;;;;;;;;;;5043236;28;20059;-57
2023/03/13 04:13:08;;;;;;;0.75;0.75;;;;;;;;;;5040480;28;20036;-54
2023/03/13 04:15:37;;;;;;;0.70;0.70;;;;;;;;;;5043822;28;20049;-54
2023/03/13 04:18:11;;;;;;;1.40;0.70;;;;;;;;;;5043286;28;20049;-53
2023/03/13 04:20:45;;;;;;;0.93;0.85;;;;;;;;;;5041543;28;20379;-54
2023/03/13 04:23:12;;;;;;;0.70;0.65;;;;;;;;;;5041354;28;20051;-55
2023/03/13 04:25:39;;;;;;;0.65;0.60;;;;;;;;;;5042871;28;20049;-53
2023/03/13 04:28:13;;;;;;;0.70;0.70;;;;;;;;;;5041990;28;20052;-50
2023/03/13 04:30:40;;;;;;;0.70;0.70;;;;;;;;;;5040474;28;20057;-57
2023/03/13 04:33:14;;;;;;;0.73;0.70;;;;;;;;;;5021665;28;20459;-62
2023/03/13 04:35:48;;;;;;;0.73;0.57;;;;;;;;;;5054047;28;20147;-62
2023/03/13 04:38:21;;;;;;;0.60;0.60;;;;;;;;;;5061574;28;20076;-62
2023/03/13 04:40:55;;;;;;;0.60;0.60;;;;;;;;;;5063158;28;20058;-62
2023/03/13 04:43:29;;;;;;;1.00;0.85;;;;;;;;;;5065155;28;20052;-62
2023/03/13 04:46:03;;;;;;;0.82;0.82;;;;;;;;;;5062211;28;20045;-63
2023/03/13 04:48:30;;;;;;;1.33;0.93;;;;;;;;;;5061196;28;20048;-63
2023/03/13 04:50:58;;;;;;;0.82;0.63;;;;;;;;;;5063638;28;20067;-61
2023/03/13 04:53:32;;;;;;;1.02;0.70;;;;;;;;;;5058597;28;20088;-50
2023/03/13 04:55:59;;;;;;;0.77;0.77;;;;;;;;;;5062381;28;20051;-51
2023/03/13 04:58:26;;;;;;;0.65;0.65;;;;;;;;;;5060694;28;20114;-50
2023/03/13 05:01:00;;;;;;;1.27;0.90;;;;;;;;;;5054763;28;20052;-48
2023/03/13 05:03:27;;;;;;;0.85;0.85;;;;;;;;;;5050784;28;20135;-62
2023/03/13 05:06:01;;;;;;;0.80;0.80;;;;;;;;;;5054927;28;20136;-54
2023/03/13 05:08:28;;;;;;;1.73;0.82;;;;;;;;;;5063336;28;20127;-54
2023/03/13 05:10:56;;;;;;;0.73;0.73;;;;;;;;;;5063029;28;20167;-56
2023/03/13 05:13:30;;;;;;;0.63;0.63;;;;;;;;;;5061866;28;20106;-55
2023/03/13 05:15:57;;;;;;;;;;;;;;;;;;5058868;28;20545;-50
2023/03/13 05:18:31;;;;;;;1.67;0.70;;;;;;;;;;5058445;28;19959;-54
2023/03/13 05:20:59;;;;;;;0.70;0.70;;;;;;;;;;5052923;28;20083;-52
2023/03/13 05:23:26;;;;;;;0.90;0.73;;;;;;;;;;5055243;28;20126;-62
2023/03/13 05:26:00;;;;;;;0.90;0.70;;;;;;;;;;5056597;28;20051;-62
2023/03/13 05:28:27;;;;;;;1.15;0.77;;;;;;;;;;5058338;28;20063;-62
2023/03/13 05:31:01;;;;;;;0.60;0.57;;;;;;;;;;5058339;28;20048;-62
2023/03/13 05:33:28;;;;;;;0.50;0.50;;;;;;;;;;5060636;28;21599;-62
2023/03/13 05:35:55;;;;;;;1.17;0.68;;;;;;;;;;5061760;28;20048;-62
2023/03/13 05:38:36;;;;;;;0.60;0.60;;;;;;;;;;5053987;28;20084;-63
2023/03/13 05:41:03;;;;;;;1.77;0.70;;;;;;;;;;5057486;28;20128;-63
2023/03/13 05:43:37;;;;;;;1.77;0.68;;;;;;;;;;5052217;28;20353;-64
2023/03/13 05:46:05;;;;;;;0.50;0.50;;;;;;;;;;5037188;28;20664;-64
2023/03/13 05:48:32;;;;;;;0.60;0.60;;;;;;;;;;5051522;28;20111;-64
2023/03/13 05:51:06;;;;;;;2.22;0.63;;;;;;;;;;5050955;28;20449;-65
2023/03/13 05:53:33;;;;;;;0.40;0.40;;;;;;;;;;5046997;28;20056;-64
2023/03/13 05:56:07;;;;;;;0.50;0.50;;;;;;;;;;5049470;28;20123;-64
2023/03/13 05:58:34;;;;;;;0.50;0.50;;;;;;;;;;5047613;28;20061;-64
2023/03/13 06:01:08;;;;;;;1.85;0.47;;;;;;;;;;5053606;28;20563;-56
2023/03/13 06:03:42;;;;;;;0.77;0.55;;;;;;;;;;5052304;28;20140;-55
2023/03/13 06:06:16;;;;;;;0.40;0.40;;;;;;;;;;5056695;28;20049;-51
2023/03/13 06:08:52;;;;;;;0.50;0.40;;;;;;;;;;5063894;28;20726;-57
2023/03/13 06:11:19;;;;;;;0.40;0.40;;;;;;;;;;5043555;28;20103;-56
2023/03/13 06:13:53;;;;;;;0.30;0.30;;;;;;;;;;5064745;28;20569;-53
2023/03/13 06:16:20;;;;;;;1.02;0.30;;;;;;;;;;5064308;28;20080;-62
2023/03/13 06:18:48;;;;;;;0.47;0.47;;;;;;;;;;5063660;28;20153;-53
2023/03/13 06:21:21;;;;;;;0.30;0.30;;;;;;;;;;5065027;28;20055;-50
2023/03/13 06:23:48;;;;;;;2.25;0.60;;;;;;;;;;5061895;28;20504;-50
2023/03/13 06:26:15;;;;;;;2.90;0.60;;;;;;;;;;5061676;28;20055;-51
2023/03/13 06:28:49;;;;;;;3.30;0.70;;;;;;;;;;5062847;28;20044;-49
2023/03/13 06:31:16;;;;;;;0.35;0.35;;;;;;;;;;5062970;28;20041;-50
2023/03/13 06:33:54;;;;;;;0.43;0.43;;;;;;;;;;5063344;28;20375;-49
2023/03/13 06:36:28;;;;;;;0.55;0.55;;;;;;;;;;5061969;28;20080;-66
2023/03/13 06:39:02;;;;;;;1.63;0.40;;;;;;;;;;5059229;28;20048;-67
2023/03/13 06:41:29;;;;;;;;;;;;;;;;;;5064309;28;20048;-67
2023/03/13 06:43:56;;;;;;;2.40;0.60;;;;;;;;;;5063841;28;20047;-66
2023/03/13 06:46:30;;;;;;;0.50;0.50;;;;;;;;;;5062033;28;20068;-69
2023/03/13 06:48:58;;;;;;;1.52;0.77;;;;;;;;;;5061940;28;20048;-67
2023/03/13 06:51:32;;;;;;;1.75;0.57;;;;;;;;;;5064262;28;20064;-62
2023/03/13 06:54:02;;;;;;;0.85;0.70;;;;;;;;;;5062324;28;20393;-60
2023/03/13 06:56:29;;;;;;;1.10;0.80;;;;;;;;;;5063315;28;20072;-55
2023/03/13 06:59:03;;;;;;;1.48;0.70;;;;;;;;;;5064013;28;20041;-53
2023/03/13 07:01:30;;;;;;;2.65;0.77;;;;;;;;;;5063163;28;20054;-51
2023/03/13 07:04:04;;;;;;;0.50;0.50;;;;;;;;;;5060884;28;20041;-53
2023/03/13 07:06:31;;;;;;;0.85;0.85;;;;;;;;;;5043770;28;20048;-48
2023/03/13 07:09:05;;;;;;;0.75;0.75;;;;;;;;;;5060431;28;20123;-51
2023/03/13 07:11:32;;;;;;;1.77;0.80;;;;;;;;;;5062412;28;20534;-50
2023/03/13 07:14:02;;;;;;;2.22;0.60;;;;;;;;;;5062721;28;20063;-45
2023/03/13 07:16:44;;;;;;;4.78;1.13;;;;;;;;;;5060659;28;20048;-45
2023/03/13 07:19:12;;;;;;;1.30;0.90;;;;;;;;;;5063382;28;20056;-50
2023/03/13 07:21:45;;;;;;;2.72;0.63;;;;;;;;;;5064061;28;20094;-48
2023/03/13 07:24:12;;;;;;;1.40;0.80;;;;;;;;;;5063049;28;20078;-46
2023/03/13 07:26:40;;;;;;;3.22;1.00;;;;;;;;;;5063779;28;20175;-45
2023/03/13 07:29:32;;;;;;;1.63;0.90;;;;;;;;;;5064987;28;20060;-61
2023/03/13 07:31:59;;;;;;;0.88;0.80;;;;;;;;;;5063614;28;20496;-62
2023/03/13 07:34:43;;;;;;;0.90;0.90;;;;;;;;;;5062914;28;20117;-62
2023/03/13 07:37:17;;;;;;;1.35;0.73;;;;;;;;;;5061681;28;20044;-63
2023/03/13 07:39:50;;;;;;;1.70;0.90;;;;;;;;;;5062152;28;20343;-62
2023/03/13 07:42:17;;;;;;;1.17;0.80;;;;;;;;;;5061690;28;20127;-62
2023/03/13 07:44:44;;;;;;;1.58;0.90;;;;;;;;;;5060095;28;20128;-62
2023/03/13 07:47:18;;;;;;;0.85;0.82;;;;;;;;;;5065051;28;20060;-62
2023/03/13 07:49:45;;;;;;;1.10;1.00;;;;;;;;;;5062106;28;20053;-60
2023/03/13 07:52:12;;;;;;;0.75;0.73;;;;;;;;;;5061245;28;20099;-56
2023/03/13 07:54:46;;;;;;;4.78;1.13;;;;;;;;;;5061840;28;20046;-55
2023/03/13 07:57:20;;;;;;;1.70;0.98;;;;;;;;;;5057147;28;20496;-54
2023/03/13 07:59:54;;;;;;;1.35;1.10;;;;;;;;;;5061781;28;20051;-56
2023/03/13 08:02:28;;;;;;;1.88;0.80;;;;;;;;;;5063609;28;20048;-57
2023/03/13 08:04:55;;;;;;;1.20;1.10;;;;;;;;;;5061693;28;20056;-51
2023/03/13 08:07:25;;;;;;;2.25;0.93;;;;;;;;;;5059528;28;20127;-62
2023/03/13 08:09:58;;;;;;;1.15;0.80;;;;;;;;;;5059762;28;20054;-49
2023/03/13 08:12:25;;;;;;;1.23;1.13;;;;;;;;;;5059409;28;20052;-48
2023/03/13 08:14:59;;;;;;;2.08;1.10;;;;;;;;;;5060043;28;20052;-48
2023/03/13 08:17:28;;;;;;;1.65;1.10;;;;;;;;;;5060476;28;20415;-49
2023/03/13 08:19:55;;;;;;;1.38;1.02;;;;;;;;;;5062535;28;20040;-50
2023/03/13 08:22:29;;;;;;;1.98;1.20;;;;;;;;;;5060599;28;20044;-52
2023/03/13 08:24:56;;;;;;;1.20;1.00;;;;;;;;;;5062571;28;20090;-61
2023/03/13 08:27:30;;;;;;;0.80;0.80;;;;;;;;;;5062518;28;20140;-54
2023/03/13 08:29:57;;;;;;;0.95;0.88;;;;;;;;;;5061376;28;20069;-52
2023/03/13 08:32:25;;;;;;;1.88;1.00;;;;;;;;;;5065106;28;20519;-54
2023/03/13 08:35:06;;;;;;;0.68;0.68;;;;;;;;;;5063079;28;20052;-57
2023/03/13 08:37:40;;;;;;;0.80;0.80;;;;;;;;;;5059703;28;20084;-53
2023/03/13 08:40:14;;;;;;;1.42;0.77;;;;;;;;;;5063624;28;20492;-53
2023/03/13 08:42:41;;;;;;;0.75;0.75;;;;;;;;;;5061345;28;20131;-55
2023/03/13 08:45:15;;;;;;;0.52;0.52;;;;;;;;;;5061887;28;20056;-69
2023/03/13 08:47:42;;;;;;;0.60;0.57;;;;;;;;;;5061712;28;20131;-68
2023/03/13 08:50:16;;;;;;;0.52;0.52;;;;;;;;;;5061466;28;20125;-68
2023/03/13 08:52:44;;;;;;;0.70;0.70;;;;;;;;;;5061749;28;20059;-68
2023/03/13 08:55:11;;;;;;;;;;;;;;;;;;5062492;28;20079;-68
2023/03/13 08:57:44;;;;;;;1.00;0.77;;;;;;;;;;5059192;28;19964;-68
2023/03/13 09:00:12;;;;;;;0.38;0.38;;;;;;;;;;5061765;28;20040;-59
2023/03/13 09:02:46;;;;;;;0.60;0.60;;;;;;;;;;5059924;28;20058;-61
2023/03/13 09:05:13;;;;;;;0.43;0.43;;;;;;;;;;5062430;28;20053;-49
2023/03/13 09:07:40;;;;;;;0.75;0.50;;;;;;;;;;5056061;28;20154;-48
2023/03/13 09:10:14;;;;;;;0.43;0.43;;;;;;;;;;5058800;28;20044;-50
2023/03/13 09:12:41;;;;;;;0.45;0.45;;;;;;;;;;5062177;28;20546;-51
2023/03/13 09:15:15;;;;;;;0.55;0.55;;;;;;;;;;5058571;28;20052;-51
2023/03/13 09:17:42;;;;;;;0.50;0.50;;;;;;;;;;5061188;28;20043;-48
2023/03/13 09:20:11;;;;;;;0.65;0.50;;;;;;;;;;5062965;28;20174;-68
2023/03/13 09:22:45;;;;;;;0.45;0.45;;;;;;;;;;5059599;28;20059;-62
2023/03/13 09:25:13;;;;;;;0.40;0.40;;;;;;;;;;5064284;28;20051;-62
2023/03/13 09:27:47;;;;;;;0.30;0.30;;;;;;;;;;5059873;28;20045;-61
2023/03/13 09:30:14;;;;;;;0.50;0.47;;;;;;;;;;5060835;28;20044;-61
2023/03/13 09:32:48;;;;;;;0.60;0.50;;;;;;;;;;5060355;28;20048;-59
2023/03/13 09:35:23;;;;;;;0.98;0.60;;;;;;;;;;5060361;28;20466;-58
2023/03/13 09:38:04;;;;;;;0.75;0.50;;;;;;;;;;5058464;28;20160;-49
2023/03/13 09:40:37;;;;;;;2.10;0.50;;;;;;;;;;5060835;28;20045;-60
2023/03/13 09:43:32;;;;;;;0.47;0.47;;;;;;;;;;5062021;28;20131;-59
2023/03/13 09:46:02;;;;;;;0.30;0.30;;;;;;;;;;5060602;28;20040;-59
2023/03/13 09:48:45;;;;;;;0.30;0.30;;;;;;;;;;5060867;28;20457;-59
2023/03/13 09:51:21;;;;;;;0.30;0.30;;;;;;;;;;5057277;28;20774;-59
2023/03/13 09:54:00;;;;;;;0.40;0.40;;;;;;;;;;5060550;28;20059;-60
2023/03/13 09:56:40;;;;;;;0.38;0.38;;;;;;;;;;5061048;28;20125;-59
2023/03/13 09:59:13;;;;;;;0.40;0.40;;;;;;;;;;5059352;28;20049;-51
2023/03/13 10:01:48;;;;;;;0.70;0.52;;;;;;;;;;5059395;28;20048;-45
2023/03/13 10:04:19;;;;;;;0.50;0.40;;;;;;;;;;5042871;28;20048;-50
2023/03/13 10:06:47;;;;;;;0.55;0.50;;;;;;;;;;5056789;28;20053;-50
2023/03/13 10:09:23;;;;;;;0.40;0.40;;;;;;;;;;5059088;28;20064;-50
2023/03/13 10:12:04;;;;;;;0.50;0.50;;;;;;;;;;5057064;28;20055;-52
2023/03/13 10:14:43;;;;;;;0.88;0.40;;;;;;;;;;5058993;28;20050;-66
2023/03/13 10:17:20;;;;;;;0.50;0.50;;;;;;;;;;5058592;28;20477;-74
2023/03/13 10:19:59;;;;;;;0.38;0.30;;;;;;;;;;5060164;28;20415;-73
2023/03/13 10:22:33;;;;;;;0.35;0.35;;;;;;;;;;5062375;28;20775;-72
2023/03/13 10:25:19;;;;;;;0.77;0.50;;;;;;;;;;5062494;28;20136;-73
2023/03/13 10:27:50;;;;;;;0.40;0.40;;;;;;;;;;5060369;28;20484;-72
2023/03/13 10:30:31;;;;;;;0.75;0.60;;;;;;;;;;5060076;28;20139;-73
2023/03/13 10:33:18;;;;;;;0.40;0.40;;;;;;;;;;5060042;28;20143;-72
2023/03/13 10:36:10;;;;;;;0.45;0.45;;;;;;;;;;5063084;28;20144;-76
2023/03/13 10:38:48;;;;;;;0.57;0.40;;;;;;;;;;5062240;28;20056;-75
2023/03/13 10:41:27;;;;;;;0.50;0.50;;;;;;;;;;5060185;28;20152;-75
2023/03/13 10:43:55;;;;;;;0.30;0.30;;;;;;;;;;5058774;28;20163;-75
2023/03/13 10:46:31;;;;;;;0.63;0.30;;;;;;;;;;5061693;28;20048;-76
2023/03/13 10:49:01;;;;;;;0.30;0.30;;;;;;;;;;5061681;28;20483;-76
2023/03/13 10:51:36;;;;;;;1.25;0.52;;;;;;;;;;5063303;28;20615;-70
2023/03/13 10:54:20;;;;;;;0.32;0.32;;;;;;;;;;5063381;28;20427;-69
2023/03/13 10:56:48;;;;;;;0.20;0.20;;;;;;;;;;5062027;28;20145;-69
2023/03/13 10:59:23;;;;;;;0.40;0.40;;;;;;;;;;5065108;28;20495;-70
2023/03/13 11:01:52;;;;;;;0.40;0.40;;;;;;;;;;5064045;28;20069;-51
2023/03/13 11:04:33;;;;;;;0.35;0.35;;;;;;;;;;5057373;28;20045;-58
2023/03/13 11:07:04;;;;;;;0.30;0.30;;;;;;;;;;5062570;28;20050;-58
2023/03/13 11:09:38;;;;;;;;;;;;;;;;;;5060963;28;20669;-58
2023/03/13 11:12:18;;;;;;;0.30;0.30;;;;;;;;;;5064347;28;19929;-58
2023/03/13 11:14:59;;;;;;;0.40;0.40;;;;;;;;;;5045939;28;20040;-58
2023/03/13 11:17:29;;;;;;;0.28;0.28;;;;;;;;;;5062288;28;20064;-58
2023/03/13 11:20:12;;;;;;;0.30;0.30;;;;;;;;;;5064065;28;20048;-48
2023/03/13 11:22:43;;;;;;;0.52;0.52;;;;;;;;;;5061474;28;20075;-49
2023/03/13 11:25:22;;;;;;;0.30;0.30;;;;;;;;;;5058607;28;20128;-50
2023/03/13 11:27:57;;;;;;;0.32;0.32;;;;;;;;;;5061437;28;20083;-54
2023/03/13 11:30:50;;;;;;;0.35;0.35;;;;;;;;;;5064340;28;20052;-51
2023/03/13 11:33:35;;;;;;;0.35;0.35;;;;;;;;;;5060446;28;20127;-53
2023/03/13 11:36:24;;;;;;;0.60;0.60;;;;;;;;;;5062608;28;20139;-51
2023/03/13 11:38:58;;;;;;;0.43;0.32;;;;;;;;;;5064257;28;20057;-49
2023/03/13 11:41:38;;;;;;;0.52;0.52;;;;;;;;;;5061394;28;20167;-52
2023/03/13 11:44:19;;;;;;;0.30;0.30;;;;;;;;;;5060782;28;20135;-52
2023/03/13 11:47:05;;;;;;;0.40;0.40;;;;;;;;;;5061860;28;20037;-49
2023/03/13 11:49:44;;;;;;;1.00;0.60;;;;;;;;;;5062639;28;20052;-52
2023/03/13 11:52:37;;;;;;;0.50;0.50;;;;;;;;;;5063181;28;20045;-51
2023/03/13 11:55:19;;;;;;;0.30;0.30;;;;;;;;;;5058575;28;20135;-53
2023/03/13 11:57:56;;;;;;;0.30;0.30;;;;;;;;;;5058446;28;20504;-58
2023/03/13 12:00:55;;;;;;;0.60;0.40;;;;;;;;;;5058855;28;20078;-67
2023/03/13 12:03:48;;;;;;;0.30;0.30;;;;;;;;;;5012694;28;20049;-68
2023/03/13 12:06:32;;;;;;;0.47;0.40;;;;;;;;;;5063884;28;20056;-68
2023/03/13 12:09:11;;;;;;;0.73;0.40;;;;;;;;;;5059528;28;20063;-67
2023/03/13 12:12:03;;;;;;;0.20;0.20;;;;;;;;;;5060712;28;20041;-67
2023/03/13 12:14:44;;;;;;;0.90;0.68;;;;;;;;;;5060214;28;20051;-59
2023/03/13 12:17:30;;;;;;;2.42;0.30;;;;;;;;;;5062689;28;20548;-47
2023/03/13 12:20:08;;;;;;;0.70;0.32;;;;;;;;;;5059277;28;20515;-50
2023/03/13 12:22:42;;;;;;;1.27;0.40;;;;;;;;;;5062662;28;20137;-48
2023/03/13 12:25:28;;;;;;;0.30;0.30;;;;;;;;;;5058495;28;20141;-51
2023/03/13 12:28:01;;;;;;;0.30;0.30;;;;;;;;;;5063458;28;20056;-49
2023/03/13 12:30:39;;;;;;;0.20;0.20;;;;;;;;;;5045039;28;20530;-50
2023/03/13 12:33:15;;;;;;;0.25;0.22;;;;;;;;;;5064274;28;20051;-50
2023/03/13 12:36:10;;;;;;;0.30;0.30;;;;;;;;;;5063240;28;20044;-66
2023/03/13 12:38:40;;;;;;;0.30;0.30;;;;;;;;;;5062506;28;20052;-66
2023/03/13 12:41:24;;;;;;;0.32;0.32;;;;;;;;;;5059220;28;20397;-66
2023/03/13 12:43:52;;;;;;;0.30;0.30;;;;;;;;;;5062339;28;20048;-67
2023/03/13 12:46:37;;;;;;;0.30;0.30;;;;;;;;;;5061857;28;20052;-66
2023/03/13 12:49:12;;;;;;;0.30;0.30;;;;;;;;;;5061430;28;20045;-66
2023/03/13 12:52:05;;;;;;;0.20;0.20;;;;;;;;;;5058696;28;20086;-66
2023/03/13 12:54:50;;;;;;;0.20;0.20;;;;;;;;;;5058882;28;20063;-59
2023/03/13 12:57:38;;;;;;;0.90;0.30;;;;;;;;;;5060518;28;20182;-59
2023/03/13 13:00:11;;;;;;;0.50;0.40;;;;;;;;;;5060377;28;20045;-58
2023/03/13 13:02:45;;;;;;;0.65;0.40;;;;;;;;;;5061063;28;20047;-59
2023/03/13 13:05:12;;;;;;;;;;;;;;;;;;5061253;28;20153;-59
2023/03/13 13:07:40;;;;;;;0.47;0.47;;;;;;;;;;5060427;28;19920;-59
2023/03/13 13:10:20;;;;;;;0.40;0.40;;;;;;;;;;5058099;28;20520;-49
2023/03/13 13:13:24;;;;;;;1.35;0.50;;;;;;;;;;5059136;28;20048;-59
2023/03/13 13:16:04;;;;;;;0.50;0.50;;;;;;;;;;5033516;28;20045;-59
2023/03/13 13:18:37;;;;;;;0.40;0.40;;;;;;;;;;5061932;28;20573;-59
2023/03/13 13:21:04;;;;;;;2.00;0.30;;;;;;;;;;5062224;28;20123;-59
2023/03/13 13:23:45;;;;;;;0.43;0.30;;;;;;;;;;5055344;28;20052;-59
2023/03/13 13:26:36;;;;;;;0.40;0.40;;;;;;;;;;5061211;28;20064;-59
2023/03/13 13:29:13;;;;;;;0.77;0.40;;;;;;;;;;5059266;28;20139;-60
2023/03/13 13:31:45;;;;;;;0.28;0.28;;;;;;;;;;5062099;28;20041;-55
2023/03/13 13:34:41;;;;;;;0.50;0.47;;;;;;;;;;5060223;28;20048;-54
2023/03/13 13:37:21;;;;;;;0.30;0.30;;;;;;;;;;5060097;28;20049;-49
2023/03/13 13:40:15;;;;;;;0.68;0.52;;;;;;;;;;5059974;28;20061;-52
2023/03/13 13:42:59;;;;;;;9.15;0.85;;;;;;;;;;5060265;28;20071;-53
2023/03/13 13:45:34;;;;;;;0.30;0.30;;;;;;;;;;5050848;28;20048;-52
2023/03/13 13:48:21;;;;;;;0.38;0.32;;;;;;;;;;5060367;28;20072;-51
2023/03/13 13:51:10;;;;;;;0.20;0.20;;;;;;;;;;5059583;28;20150;-59
2023/03/13 13:53:44;;;;;;;0.57;0.40;;;;;;;;;;5028750;28;20053;-59
2023/03/13 13:56:45;;;;;;;0.25;0.25;;;;;;;;;;5062568;28;20071;-59
2023/03/13 13:59:25;;;;;;;0.77;0.52;;;;;;;;;;5029348;28;20043;-59
2023/03/13 14:02:08;;;;;;;18.15;1.17;;;;;;;;;;5060227;28;20044;-59
2023/03/13 14:04:46;;;;;;;1.52;0.80;;;;;;;;;;5054177;28;20063;-52
2023/03/13 14:07:24;;;;;;;4.95;1.02;;;;;;;;;;5060314;28;20493;-52
2023/03/13 14:09:59;;;;;;;6.85;1.30;;;;;;;;;;5058160;28;20048;-53
2023/03/13 14:12:37;;;;;;;10.32;1.88;;;;;;;;;;5043966;28;20566;-51
2023/03/13 14:15:18;;;;;;;16.60;2.63;;;;;;;;;;5058020;28;20135;-54
2023/03/13 14:17:48;;;;;;;158.57;7.68;;;;;;;;;;5060488;28;20056;-49
2023/03/13 14:20:22;;;;;;;83.45;5.93;;;;;;;;;;5057818;28;20076;-49
2023/03/13 14:22:52;;;;;;;20.20;2.80;;;;;;;;;;5061308;28;20491;-59
2023/03/13 14:25:22;;;;;;;13.30;2.78;;;;;;;;;;5044569;28;20056;-65
2023/03/13 14:27:55;;;;;;;19.08;2.75;;;;;;;;;;5061356;28;20072;-64
2023/03/13 14:30:29;;;;;;;33.05;3.53;;;;;;;;;;5063929;28;20044;-65
2023/03/13 14:32:56;;;;;;;;;;;;;;;;;;5061378;28;20048;-63
2023/03/13 14:35:30;;;;;;;20.27;3.00;;;;;;;;;;5060655;28;19924;-66
2023/03/13 14:38:21;;;;;;;19.85;3.53;;;;;;;;;;5043911;28;20041;-65
2023/03/13 14:40:49;;;;;;;30.73;3.92;;;;;;;;;;5040773;28;20140;-64
2023/03/13 14:43:40;;;;;;;30.55;3.25;;;;;;;;;;5044292;28;20052;-53
2023/03/13 14:46:26;;;;;;;38.67;4.22;;;;;;;;;;5040795;28;20136;-65
2023/03/13 14:49:28;;;;;;;28.23;4.13;;;;;;;;;;5040754;28;20053;-65
2023/03/13 14:51:58;;;;;;;32.95;4.90;;;;;;;;;;5020840;28;20092;-65
2023/03/13 14:54:33;;;;;;;20.45;3.92;;;;;;;;;;5041932;28;20049;-65
2023/03/13 14:57:05;;;;;;;22.27;4.43;;;;;;;;;;5043341;28;20053;-65
2023/03/13 14:59:39;;;;;;;25.00;4.72;;;;;;;;;;5042006;28;20403;-65
2023/03/13 15:02:33;;;;;;;27.75;5.18;;;;;;;;;;5044553;28;20072;-59
2023/03/13 15:05:09;;;;;;;35.17;5.15;;;;;;;;;;5037564;28;20055;-55
2023/03/13 15:07:41;;;;;;;48.03;6.47;;;;;;;;;;5038931;28;20103;-51
2023/03/13 15:10:22;;;;;;;53.08;7.18;;;;;;;;;;5042908;28;20108;-54
2023/03/13 15:12:49;;;;;;;43.05;7.80;;;;;;;;;;5041875;28;20140;-50
2023/03/13 15:15:23;;;;;;;59.22;6.70;;;;;;;;;;5045010;28;20123;-51
2023/03/13 15:17:50;;;;;;;68.70;7.13;;;;;;;;;;5041313;28;20625;-47
2023/03/13 15:20:18;;;;;;;54.85;5.90;;;;;;;;;;5042943;28;20072;-60
2023/03/13 15:22:52;;;;;;;65.35;8.07;;;;;;;;;;5041322;28;20742;-51
2023/03/13 15:25:20;;;;;;;;;;;;;;;;;;5041923;28;20053;-50